sensor_id;sensor_type;location;lat;lon;timestamp;temperature;humidity
32640;DHT22;19049;52.524;11.468;2022-12-07T00:01:22;4.30;99.90
32640;DHT22;19049;52.524;11.468;2022-12-07T00:03:53;4.30;99.90
32640;DHT22;19049;52.524;11.468;2022-12-07T00:06:20;4.30;99.90
32640;DHT22;19049;52.524;11.468;2022-12-07T00:08:47;4.20;99.90
32640;DHT22;19049;52.524;11.468;2022-12-07T00:11:16;4.20;99.90
32640;DHT22;19049;52.524;11.468;2022-12-07T00:13:42;4.20;99.90
32640;DHT22;19049;52.524;11.468;2022-12-07T00:16:11;4.20;99.90
32640;DHT22;19049;52.524;11.468;2022-12-07T00:18:40;4.20;99.90
32640;DHT22;19049;52.524;11.468;2022-12-07T00:21:13;4.20;99.90
32640;DHT22;19049;52.524;11.468;2022-12-07T00:23:40;4.30;99.90
32640;DHT22;19049;52.524;11.468;2022-12-07T00:26:11;4.30;99.90
32640;DHT22;19049;52.524;11.468;2022-12-07T00:28:37;4.30;99.90
32640;DHT22;19049;52.524;11.468;2022-12-07T00:31:09;4.30;99.90
32640;DHT22;19049;52.524;11.468;2022-12-07T00:33:35;4.40;99.90
32640;DHT22;19049;52.524;11.468;2022-12-07T00:36:06;4.40;99.90
32640;DHT22;19049;52.524;11.468;2022-12-07T00:38:34;4.40;99.90
32640;DHT22;19049;52.524;11.468;2022-12-07T00:41:02;4.40;99.90
32640;DHT22;19049;52.524;11.468;2022-12-07T00:43:28;4.50;99.90
32640;DHT22;19049;52.524;11.468;2022-12-07T00:45:57;4.50;99.90
32640;DHT22;19049;52.524;11.468;2022-12-07T00:48:25;4.50;99.90
32640;DHT22;19049;52.524;11.468;2022-12-07T00:50:52;4.50;99.90
32640;DHT22;19049;52.524;11.468;2022-12-07T00:53:18;4.50;99.90
32640;DHT22;19049;52.524;11.468;2022-12-07T00:55:44;4.50;99.90
32640;DHT22;19049;52.524;11.468;2022-12-07T00:58:12;4.60;99.90
32640;DHT22;19049;52.524;11.468;2022-12-07T01:00:40;4.60;99.90
32640;DHT22;19049;52.524;11.468;2022-12-07T01:03:07;4.60;99.90
32640;DHT22;19049;52.524;11.468;2022-12-07T01:05:34;4.60;99.90
32640;DHT22;19049;52.524;11.468;2022-12-07T01:08:00;4.60;99.90
32640;DHT22;19049;52.524;11.468;2022-12-07T01:10:26;4.70;99.90
32640;DHT22;19049;52.524;11.468;2022-12-07T01:12:54;4.70;99.90
32640;DHT22;19049;52.524;11.468;2022-12-07T01:15:22;4.70;99.90
32640;DHT22;19049;52.524;11.468;2022-12-07T01:17:48;4.70;99.90
32640;DHT22;19049;52.524;11.468;2022-12-07T01:20:14;4.70;99.90
32640;DHT22;19049;52.524;11.468;2022-12-07T01:22:41;4.80;99.90
32640;DHT22;19049;52.524;11.468;2022-12-07T01:25:09;4.80;99.90
32640;DHT22;19049;52.524;11.468;2022-12-07T01:27:35;4.80;99.90
32640;DHT22;19049;52.524;11.468;2022-12-07T01:30:03;4.80;99.90
32640;DHT22;19049;52.524;11.468;2022-12-07T01:32:30;4.90;99.90
32640;DHT22;19049;52.524;11.468;2022-12-07T01:34:55;4.90;99.90
32640;DHT22;19049;52.524;11.468;2022-12-07T01:37:21;4.90;99.90
32640;DHT22;19049;52.524;11.468;2022-12-07T01:39:51;4.90;99.90
32640;DHT22;19049;52.524;11.468;2022-12-07T01:42:19;5.00;99.90
32640;DHT22;19049;52.524;11.468;2022-12-07T01:47:48;5.00;99.90
32640;DHT22;19049;52.524;11.468;2022-12-07T01:50:16;5.00;99.90
32640;DHT22;19049;52.524;11.468;2022-12-07T01:52:45;5.00;99.90
32640;DHT22;19049;52.524;11.468;2022-12-07T01:55:15;5.10;99.90
32640;DHT22;19049;52.524;11.468;2022-12-07T01:57:44;5.10;99.90
32640;DHT22;19049;52.524;11.468;2022-12-07T02:00:11;5.10;99.90
32640;DHT22;19049;52.524;11.468;2022-12-07T02:05:11;5.10;99.90
32640;DHT22;19049;52.524;11.468;2022-12-07T02:07:38;5.20;99.90
32640;DHT22;19049;52.524;11.468;2022-12-07T02:10:22;5.20;99.90
32640;DHT22;19049;52.524;11.468;2022-12-07T02:12:53;5.20;99.90
32640;DHT22;19049;52.524;11.468;2022-12-07T02:15:22;5.20;99.90
32640;DHT22;19049;52.524;11.468;2022-12-07T02:18:11;5.20;99.90
32640;DHT22;19049;52.524;11.468;2022-12-07T02:20:53;5.30;99.90
32640;DHT22;19049;52.524;11.468;2022-12-07T02:26:21;5.30;99.90
32640;DHT22;19049;52.524;11.468;2022-12-07T02:28:58;5.30;99.90
32640;DHT22;19049;52.524;11.468;2022-12-07T02:31:31;5.30;99.90
32640;DHT22;19049;52.524;11.468;2022-12-07T02:34:09;5.30;99.90
32640;DHT22;19049;52.524;11.468;2022-12-07T02:36:43;5.30;99.90
32640;DHT22;19049;52.524;11.468;2022-12-07T02:39:23;5.30;99.90
32640;DHT22;19049;52.524;11.468;2022-12-07T02:41:55;5.30;99.90
32640;DHT22;19049;52.524;11.468;2022-12-07T02:44:24;5.30;99.90
32640;DHT22;19049;52.524;11.468;2022-12-07T02:46:59;5.30;99.90
32640;DHT22;19049;52.524;11.468;2022-12-07T02:49:28;5.30;99.90
32640;DHT22;19049;52.524;11.468;2022-12-07T02:51:55;5.40;99.90
32640;DHT22;19049;52.524;11.468;2022-12-07T02:54:21;5.40;99.90
32640;DHT22;19049;52.524;11.468;2022-12-07T02:56:51;5.40;99.90
32640;DHT22;19049;52.524;11.468;2022-12-07T03:07:18;5.50;99.90
32640;DHT22;19049;52.524;11.468;2022-12-07T03:12:42;5.50;99.90
32640;DHT22;19049;52.524;11.468;2022-12-07T03:15:16;5.50;99.90
32640;DHT22;19049;52.524;11.468;2022-12-07T03:17:47;5.60;99.90
32640;DHT22;19049;52.524;11.468;2022-12-07T03:20:19;5.60;99.90
32640;DHT22;19049;52.524;11.468;2022-12-07T03:22:47;5.60;99.90
32640;DHT22;19049;52.524;11.468;2022-12-07T03:25:15;5.60;99.90
32640;DHT22;19049;52.524;11.468;2022-12-07T03:28:02;5.60;99.90
32640;DHT22;19049;52.524;11.468;2022-12-07T03:31:17;5.60;99.90
32640;DHT22;19049;52.524;11.468;2022-12-07T03:33:28;5.70;99.90
32640;DHT22;19049;52.524;11.468;2022-12-07T03:36:07;5.70;99.90
32640;DHT22;19049;52.524;11.468;2022-12-07T03:38:46;5.70;99.90
32640;DHT22;19049;52.524;11.468;2022-12-07T03:41:33;5.80;99.90
32640;DHT22;19049;52.524;11.468;2022-12-07T03:44:00;5.80;99.90
32640;DHT22;19049;52.524;11.468;2022-12-07T03:49:27;5.80;99.90
32640;DHT22;19049;52.524;11.468;2022-12-07T03:55:20;5.90;99.90
32640;DHT22;19049;52.524;11.468;2022-12-07T03:57:49;5.90;99.90
32640;DHT22;19049;52.524;11.468;2022-12-07T04:00:16;5.90;99.90
32640;DHT22;19049;52.524;11.468;2022-12-07T04:02:43;5.90;99.90
32640;DHT22;19049;52.524;11.468;2022-12-07T04:05:09;5.90;99.90
32640;DHT22;19049;52.524;11.468;2022-12-07T04:07:35;5.90;99.90
32640;DHT22;19049;52.524;11.468;2022-12-07T04:10:02;6.00;99.90
32640;DHT22;19049;52.524;11.468;2022-12-07T04:12:28;6.00;99.90
32640;DHT22;19049;52.524;11.468;2022-12-07T04:14:54;6.00;99.90
32640;DHT22;19049;52.524;11.468;2022-12-07T04:17:19;6.00;99.90
32640;DHT22;19049;52.524;11.468;2022-12-07T04:19:45;6.00;99.90
32640;DHT22;19049;52.524;11.468;2022-12-07T04:22:11;6.00;99.90
32640;DHT22;19049;52.524;11.468;2022-12-07T04:24:36;6.10;99.90
32640;DHT22;19049;52.524;11.468;2022-12-07T04:27:02;6.00;99.90
32640;DHT22;19049;52.524;11.468;2022-12-07T04:29:28;6.00;99.90
32640;DHT22;19049;52.524;11.468;2022-12-07T04:31:56;6.10;99.90
32640;DHT22;19049;52.524;11.468;2022-12-07T04:34:22;6.10;99.90
32640;DHT22;19049;52.524;11.468;2022-12-07T04:36:48;6.10;99.90
32640;DHT22;19049;52.524;11.468;2022-12-07T04:39:34;6.10;99.90
32640;DHT22;19049;52.524;11.468;2022-12-07T04:42:00;6.10;99.90
32640;DHT22;19049;52.524;11.468;2022-12-07T04:44:27;6.10;99.90
32640;DHT22;19049;52.524;11.468;2022-12-07T04:46:54;6.10;99.90
32640;DHT22;19049;52.524;11.468;2022-12-07T04:49:20;6.10;99.90
32640;DHT22;19049;52.524;11.468;2022-12-07T04:51:48;6.10;99.90
32640;DHT22;19049;52.524;11.468;2022-12-07T04:54:15;6.10;99.90
32640;DHT22;19049;52.524;11.468;2022-12-07T04:56:42;6.10;99.90
32640;DHT22;19049;52.524;11.468;2022-12-07T04:59:08;6.10;99.90
32640;DHT22;19049;52.524;11.468;2022-12-07T05:01:34;6.10;99.50
32640;DHT22;19049;52.524;11.468;2022-12-07T05:04:00;6.10;99.40
32640;DHT22;19049;52.524;11.468;2022-12-07T05:06:26;6.10;99.80
32640;DHT22;19049;52.524;11.468;2022-12-07T05:08:52;6.10;99.70
32640;DHT22;19049;52.524;11.468;2022-12-07T05:11:18;6.10;99.70
32640;DHT22;19049;52.524;11.468;2022-12-07T05:14:03;6.10;99.50
32640;DHT22;19049;52.524;11.468;2022-12-07T05:16:29;6.10;99.40
32640;DHT22;19049;52.524;11.468;2022-12-07T05:18:55;6.10;99.70
32640;DHT22;19049;52.524;11.468;2022-12-07T05:21:21;6.10;99.60
32640;DHT22;19049;52.524;11.468;2022-12-07T05:23:49;6.10;99.50
32640;DHT22;19049;52.524;11.468;2022-12-07T05:26:15;6.10;99.50
32640;DHT22;19049;52.524;11.468;2022-12-07T05:28:41;6.10;99.40
32640;DHT22;19049;52.524;11.468;2022-12-07T05:31:06;6.10;99.60
32640;DHT22;19049;52.524;11.468;2022-12-07T05:33:32;6.10;99.30
32640;DHT22;19049;52.524;11.468;2022-12-07T05:35:58;6.10;99.20
32640;DHT22;19049;52.524;11.468;2022-12-07T05:38:24;6.10;99.20
32640;DHT22;19049;52.524;11.468;2022-12-07T05:40:50;6.00;99.10
32640;DHT22;19049;52.524;11.468;2022-12-07T05:43:16;6.00;99.50
32640;DHT22;19049;52.524;11.468;2022-12-07T05:45:41;6.00;99.00
32640;DHT22;19049;52.524;11.468;2022-12-07T05:48:07;6.00;99.20
32640;DHT22;19049;52.524;11.468;2022-12-07T05:50:33;5.90;98.90
32640;DHT22;19049;52.524;11.468;2022-12-07T05:53:01;5.90;98.80
32640;DHT22;19049;52.524;11.468;2022-12-07T05:55:29;5.90;98.80
32640;DHT22;19049;52.524;11.468;2022-12-07T05:57:54;5.80;98.60
32640;DHT22;19049;52.524;11.468;2022-12-07T06:00:43;5.80;98.80
32640;DHT22;19049;52.524;11.468;2022-12-07T06:03:09;5.80;98.80
32640;DHT22;19049;52.524;11.468;2022-12-07T06:05:40;5.80;98.70
32640;DHT22;19049;52.524;11.468;2022-12-07T06:08:08;5.70;98.50
32640;DHT22;19049;52.524;11.468;2022-12-07T06:10:36;5.70;98.70
32640;DHT22;19049;52.524;11.468;2022-12-07T06:13:02;5.70;98.70
32640;DHT22;19049;52.524;11.468;2022-12-07T06:15:28;5.70;98.80
32640;DHT22;19049;52.524;11.468;2022-12-07T06:17:53;5.70;98.70
32640;DHT22;19049;52.524;11.468;2022-12-07T06:20:19;5.80;98.20
32640;DHT22;19049;52.524;11.468;2022-12-07T06:22:45;5.70;98.30
32640;DHT22;19049;52.524;11.468;2022-12-07T06:25:10;5.70;98.30
32640;DHT22;19049;52.524;11.468;2022-12-07T06:27:41;5.70;98.10
32640;DHT22;19049;52.524;11.468;2022-12-07T06:30:07;5.70;98.60
32640;DHT22;19049;52.524;11.468;2022-12-07T06:32:35;5.70;98.00
32640;DHT22;19049;52.524;11.468;2022-12-07T06:35:01;5.70;98.10
32640;DHT22;19049;52.524;11.468;2022-12-07T06:37:27;5.70;98.20
32640;DHT22;19049;52.524;11.468;2022-12-07T06:39:52;5.70;98.40
32640;DHT22;19049;52.524;11.468;2022-12-07T06:42:18;5.70;98.20
32640;DHT22;19049;52.524;11.468;2022-12-07T06:44:44;5.70;98.30
32640;DHT22;19049;52.524;11.468;2022-12-07T06:47:09;5.70;98.30
32640;DHT22;19049;52.524;11.468;2022-12-07T06:49:36;5.70;98.00
32640;DHT22;19049;52.524;11.468;2022-12-07T06:52:02;5.70;98.40
32640;DHT22;19049;52.524;11.468;2022-12-07T06:54:30;5.70;98.10
32640;DHT22;19049;52.524;11.468;2022-12-07T06:56:55;5.70;98.00
32640;DHT22;19049;52.524;11.468;2022-12-07T06:59:21;5.70;98.20
32640;DHT22;19049;52.524;11.468;2022-12-07T07:01:47;5.70;98.10
32640;DHT22;19049;52.524;11.468;2022-12-07T07:04:13;5.70;98.20
32640;DHT22;19049;52.524;11.468;2022-12-07T07:06:38;5.70;97.60
32640;DHT22;19049;52.524;11.468;2022-12-07T07:09:04;5.60;97.60
32640;DHT22;19049;52.524;11.468;2022-12-07T07:11:29;5.60;97.70
32640;DHT22;19049;52.524;11.468;2022-12-07T07:13:55;5.60;98.10
32640;DHT22;19049;52.524;11.468;2022-12-07T07:16:24;5.60;98.00
32640;DHT22;19049;52.524;11.468;2022-12-07T07:18:49;5.60;97.90
32640;DHT22;19049;52.524;11.468;2022-12-07T07:21:15;5.50;97.80
32640;DHT22;19049;52.524;11.468;2022-12-07T07:23:41;5.50;98.00
32640;DHT22;19049;52.524;11.468;2022-12-07T07:26:06;5.50;97.90
32640;DHT22;19049;52.524;11.468;2022-12-07T07:28:32;5.50;98.00
32640;DHT22;19049;52.524;11.468;2022-12-07T07:30:58;5.40;97.80
32640;DHT22;19049;52.524;11.468;2022-12-07T07:33:23;5.40;97.90
32640;DHT22;19049;52.524;11.468;2022-12-07T07:35:52;5.40;97.90
32640;DHT22;19049;52.524;11.468;2022-12-07T07:38:17;5.40;98.00
32640;DHT22;19049;52.524;11.468;2022-12-07T07:40:46;5.30;98.10
32640;DHT22;19049;52.524;11.468;2022-12-07T07:43:12;5.30;98.50
32640;DHT22;19049;52.524;11.468;2022-12-07T07:45:37;5.30;98.40
32640;DHT22;19049;52.524;11.468;2022-12-07T07:48:03;5.30;98.10
32640;DHT22;19049;52.524;11.468;2022-12-07T07:50:29;5.30;98.20
32640;DHT22;19049;52.524;11.468;2022-12-07T07:52:56;5.30;98.30
32640;DHT22;19049;52.524;11.468;2022-12-07T07:55:22;5.30;98.10
32640;DHT22;19049;52.524;11.468;2022-12-07T07:57:48;5.30;98.40
32640;DHT22;19049;52.524;11.468;2022-12-07T08:00:14;5.30;98.30
32640;DHT22;19049;52.524;11.468;2022-12-07T08:02:41;5.30;98.50
32640;DHT22;19049;52.524;11.468;2022-12-07T08:05:09;5.40;98.50
32640;DHT22;19049;52.524;11.468;2022-12-07T08:07:35;5.40;98.80
32640;DHT22;19049;52.524;11.468;2022-12-07T08:10:01;5.40;98.80
32640;DHT22;19049;52.524;11.468;2022-12-07T08:12:26;5.50;98.70
32640;DHT22;19049;52.524;11.468;2022-12-07T08:14:52;5.50;98.60
32640;DHT22;19049;52.524;11.468;2022-12-07T08:17:18;5.50;98.70
32640;DHT22;19049;52.524;11.468;2022-12-07T08:19:43;5.50;98.60
32640;DHT22;19049;52.524;11.468;2022-12-07T08:22:09;5.60;98.70
32640;DHT22;19049;52.524;11.468;2022-12-07T08:24:36;5.50;98.50
32640;DHT22;19049;52.524;11.468;2022-12-07T08:27:02;5.60;98.60
32640;DHT22;19049;52.524;11.468;2022-12-07T08:29:27;5.50;98.40
32640;DHT22;19049;52.524;11.468;2022-12-07T08:31:55;5.50;98.40
32640;DHT22;19049;52.524;11.468;2022-12-07T08:34:23;5.50;98.70
32640;DHT22;19049;52.524;11.468;2022-12-07T08:36:49;5.50;98.60
32640;DHT22;19049;52.524;11.468;2022-12-07T08:39:17;5.60;98.80
32640;DHT22;19049;52.524;11.468;2022-12-07T08:41:43;5.60;98.70
32640;DHT22;19049;52.524;11.468;2022-12-07T08:44:08;5.60;98.80
32640;DHT22;19049;52.524;11.468;2022-12-07T08:46:38;5.60;98.70
32640;DHT22;19049;52.524;11.468;2022-12-07T08:49:17;5.60;98.80
32640;DHT22;19049;52.524;11.468;2022-12-07T08:51:44;5.60;98.50
32640;DHT22;19049;52.524;11.468;2022-12-07T08:54:16;5.70;98.80
32640;DHT22;19049;52.524;11.468;2022-12-07T08:56:43;5.70;98.80
32640;DHT22;19049;52.524;11.468;2022-12-07T08:59:10;5.70;99.00
32640;DHT22;19049;52.524;11.468;2022-12-07T09:01:37;5.80;98.80
32640;DHT22;19049;52.524;11.468;2022-12-07T09:04:02;5.80;98.80
32640;DHT22;19049;52.524;11.468;2022-12-07T09:06:28;5.80;98.80
32640;DHT22;19049;52.524;11.468;2022-12-07T09:08:57;5.80;98.70
32640;DHT22;19049;52.524;11.468;2022-12-07T09:11:23;5.90;98.60
32640;DHT22;19049;52.524;11.468;2022-12-07T09:13:49;5.90;98.70
32640;DHT22;19049;52.524;11.468;2022-12-07T09:16:15;5.90;98.50
32640;DHT22;19049;52.524;11.468;2022-12-07T09:18:40;5.90;98.10
32640;DHT22;19049;52.524;11.468;2022-12-07T09:21:07;5.90;98.10
32640;DHT22;19049;52.524;11.468;2022-12-07T09:23:33;5.90;98.10
32640;DHT22;19049;52.524;11.468;2022-12-07T09:26:00;6.00;98.20
32640;DHT22;19049;52.524;11.468;2022-12-07T09:28:26;6.00;98.40
32640;DHT22;19049;52.524;11.468;2022-12-07T09:30:52;6.00;98.60
32640;DHT22;19049;52.524;11.468;2022-12-07T09:33:17;6.10;98.50
32640;DHT22;19049;52.524;11.468;2022-12-07T09:35:48;6.10;98.60
32640;DHT22;19049;52.524;11.468;2022-12-07T09:38:14;6.10;98.00
32640;DHT22;19049;52.524;11.468;2022-12-07T09:40:41;6.10;98.10
32640;DHT22;19049;52.524;11.468;2022-12-07T09:43:18;6.20;98.00
32640;DHT22;19049;52.524;11.468;2022-12-07T09:45:44;6.20;98.30
32640;DHT22;19049;52.524;11.468;2022-12-07T09:48:20;6.20;98.10
32640;DHT22;19049;52.524;11.468;2022-12-07T09:50:47;6.20;98.00
32640;DHT22;19049;52.524;11.468;2022-12-07T09:53:24;6.30;98.10
32640;DHT22;19049;52.524;11.468;2022-12-07T09:55:50;6.30;98.00
32640;DHT22;19049;52.524;11.468;2022-12-07T09:58:27;6.30;97.60
32640;DHT22;19049;52.524;11.468;2022-12-07T10:01:15;6.40;97.80
32640;DHT22;19049;52.524;11.468;2022-12-07T10:03:47;6.40;97.50
32640;DHT22;19049;52.524;11.468;2022-12-07T10:06:16;6.40;98.00
32640;DHT22;19049;52.524;11.468;2022-12-07T10:08:42;6.50;98.00
32640;DHT22;19049;52.524;11.468;2022-12-07T10:11:09;6.50;98.30
32640;DHT22;19049;52.524;11.468;2022-12-07T10:13:52;6.60;97.90
32640;DHT22;19049;52.524;11.468;2022-12-07T10:18:49;6.70;98.20
32640;DHT22;19049;52.524;11.468;2022-12-07T10:21:16;6.70;97.70
32640;DHT22;19049;52.524;11.468;2022-12-07T10:24:05;6.80;97.50
32640;DHT22;19049;52.524;11.468;2022-12-07T10:31:40;6.80;96.80
32640;DHT22;19049;52.524;11.468;2022-12-07T10:34:24;6.80;97.10
32640;DHT22;19049;52.524;11.468;2022-12-07T10:36:50;6.70;96.60
32640;DHT22;19049;52.524;11.468;2022-12-07T10:39:21;6.70;96.90
32640;DHT22;19049;52.524;11.468;2022-12-07T10:44:26;6.70;97.20
32640;DHT22;19049;52.524;11.468;2022-12-07T10:47:19;6.70;97.00
32640;DHT22;19049;52.524;11.468;2022-12-07T10:58:03;6.70;96.20
32640;DHT22;19049;52.524;11.468;2022-12-07T11:01:13;6.60;95.90
32640;DHT22;19049;52.524;11.468;2022-12-07T11:06:41;6.70;96.90
32640;DHT22;19049;52.524;11.468;2022-12-07T11:14:48;7.00;96.90
32640;DHT22;19049;52.524;11.468;2022-12-07T11:17:20;7.10;97.20
32640;DHT22;19049;52.524;11.468;2022-12-07T11:37:16;7.30;96.40
32640;DHT22;19049;52.524;11.468;2022-12-07T11:39:52;7.30;96.80
32640;DHT22;19049;52.524;11.468;2022-12-07T11:42:25;7.30;96.80
32640;DHT22;19049;52.524;11.468;2022-12-07T11:45:01;7.20;95.90
32640;DHT22;19049;52.524;11.468;2022-12-07T11:50:38;7.20;96.40
32640;DHT22;19049;52.524;11.468;2022-12-07T11:53:15;7.10;96.30
32640;DHT22;19049;52.524;11.468;2022-12-07T11:58:40;7.10;97.00
32640;DHT22;19049;52.524;11.468;2022-12-07T12:03:45;7.00;96.80
32640;DHT22;19049;52.524;11.468;2022-12-07T12:06:12;7.00;97.00
32640;DHT22;19049;52.524;11.468;2022-12-07T12:14:35;6.90;95.90
32640;DHT22;19049;52.524;11.468;2022-12-07T12:20:19;6.80;96.70
32640;DHT22;19049;52.524;11.468;2022-12-07T12:23:00;6.80;95.60
32640;DHT22;19049;52.524;11.468;2022-12-07T12:25:40;6.70;95.30
32640;DHT22;19049;52.524;11.468;2022-12-07T12:46:58;6.60;96.30
32640;DHT22;19049;52.524;11.468;2022-12-07T12:54:38;6.70;97.00
32640;DHT22;19049;52.524;11.468;2022-12-07T12:57:32;6.60;97.00
32640;DHT22;19049;52.524;11.468;2022-12-07T12:59:59;6.70;97.20
32640;DHT22;19049;52.524;11.468;2022-12-07T13:15:51;6.80;96.70
32640;DHT22;19049;52.524;11.468;2022-12-07T13:20:57;6.80;95.90
32640;DHT22;19049;52.524;11.468;2022-12-07T13:29:15;6.80;95.60
32640;DHT22;19049;52.524;11.468;2022-12-07T13:32:19;6.70;95.80
32640;DHT22;19049;52.524;11.468;2022-12-07T13:34:48;6.70;96.00
32640;DHT22;19049;52.524;11.468;2022-12-07T13:37:27;6.70;95.80
32640;DHT22;19049;52.524;11.468;2022-12-07T13:39:59;6.70;96.20
32640;DHT22;19049;52.524;11.468;2022-12-07T13:42:33;6.70;96.00
32640;DHT22;19049;52.524;11.468;2022-12-07T13:45:16;6.70;96.10
32640;DHT22;19049;52.524;11.468;2022-12-07T13:47:52;6.70;95.90
32640;DHT22;19049;52.524;11.468;2022-12-07T13:50:27;6.60;96.30
32640;DHT22;19049;52.524;11.468;2022-12-07T13:52:58;6.60;96.20
32640;DHT22;19049;52.524;11.468;2022-12-07T13:55:25;6.50;95.80
32640;DHT22;19049;52.524;11.468;2022-12-07T13:57:53;6.50;95.80
32640;DHT22;19049;52.524;11.468;2022-12-07T14:00:21;6.50;96.40
32640;DHT22;19049;52.524;11.468;2022-12-07T14:03:00;6.40;96.60
32640;DHT22;19049;52.524;11.468;2022-12-07T14:05:34;6.30;96.50
32640;DHT22;19049;52.524;11.468;2022-12-07T14:10:53;6.30;96.60
32640;DHT22;19049;52.524;11.468;2022-12-07T14:13:38;6.20;96.40
32640;DHT22;19049;52.524;11.468;2022-12-07T14:16:30;6.20;97.10
32640;DHT22;19049;52.524;11.468;2022-12-07T14:18:58;6.10;96.40
32640;DHT22;19049;52.524;11.468;2022-12-07T14:21:27;6.10;97.00
32640;DHT22;19049;52.524;11.468;2022-12-07T14:24:18;6.10;97.10
32640;DHT22;19049;52.524;11.468;2022-12-07T14:26:48;6.10;97.00
32640;DHT22;19049;52.524;11.468;2022-12-07T14:31:54;6.00;97.20
32640;DHT22;19049;52.524;11.468;2022-12-07T14:34:20;6.00;97.20
32640;DHT22;19049;52.524;11.468;2022-12-07T14:36:47;6.00;96.90
32640;DHT22;19049;52.524;11.468;2022-12-07T14:39:12;6.00;96.80
32640;DHT22;19049;52.524;11.468;2022-12-07T14:41:38;6.00;96.60
32640;DHT22;19049;52.524;11.468;2022-12-07T14:44:16;5.90;96.40
32640;DHT22;19049;52.524;11.468;2022-12-07T14:46:42;5.90;96.90
32640;DHT22;19049;52.524;11.468;2022-12-07T14:49:07;5.90;96.90
32640;DHT22;19049;52.524;11.468;2022-12-07T14:51:37;5.90;97.10
32640;DHT22;19049;52.524;11.468;2022-12-07T14:54:05;5.80;96.40
32640;DHT22;19049;52.524;11.468;2022-12-07T14:56:31;5.90;96.70
32640;DHT22;19049;52.524;11.468;2022-12-07T14:58:57;5.80;96.70
32640;DHT22;19049;52.524;11.468;2022-12-07T15:01:22;5.80;97.10
32640;DHT22;19049;52.524;11.468;2022-12-07T15:03:48;5.80;96.80
32640;DHT22;19049;52.524;11.468;2022-12-07T15:06:15;5.70;96.70
32640;DHT22;19049;52.524;11.468;2022-12-07T15:08:41;5.70;96.80
32640;DHT22;19049;52.524;11.468;2022-12-07T15:11:14;5.70;96.80
32640;DHT22;19049;52.524;11.468;2022-12-07T15:13:40;5.60;97.20
32640;DHT22;19049;52.524;11.468;2022-12-07T15:16:24;5.60;97.40
32640;DHT22;19049;52.524;11.468;2022-12-07T15:18:52;5.60;97.50
32640;DHT22;19049;52.524;11.468;2022-12-07T15:21:18;5.60;97.40
32640;DHT22;19049;52.524;11.468;2022-12-07T15:23:43;5.50;97.20
32640;DHT22;19049;52.524;11.468;2022-12-07T15:26:11;5.50;97.50
32640;DHT22;19049;52.524;11.468;2022-12-07T15:28:37;5.50;97.70
32640;DHT22;19049;52.524;11.468;2022-12-07T15:31:03;5.50;97.70
32640;DHT22;19049;52.524;11.468;2022-12-07T15:33:28;5.40;97.70
32640;DHT22;19049;52.524;11.468;2022-12-07T15:35:54;5.40;97.80
32640;DHT22;19049;52.524;11.468;2022-12-07T15:38:20;5.30;97.60
32640;DHT22;19049;52.524;11.468;2022-12-07T15:40:50;5.30;97.80
32640;DHT22;19049;52.524;11.468;2022-12-07T15:43:16;5.30;98.00
32640;DHT22;19049;52.524;11.468;2022-12-07T15:46:00;5.20;97.90
32640;DHT22;19049;52.524;11.468;2022-12-07T15:48:25;5.20;97.90
32640;DHT22;19049;52.524;11.468;2022-12-07T15:50:51;5.20;98.10
32640;DHT22;19049;52.524;11.468;2022-12-07T15:53:17;5.10;98.10
32640;DHT22;19049;52.524;11.468;2022-12-07T15:55:42;5.10;98.20
32640;DHT22;19049;52.524;11.468;2022-12-07T15:58:08;5.10;98.30
32640;DHT22;19049;52.524;11.468;2022-12-07T16:00:34;5.10;98.50
32640;DHT22;19049;52.524;11.468;2022-12-07T16:02:59;5.10;98.60
32640;DHT22;19049;52.524;11.468;2022-12-07T16:05:28;5.00;98.60
32640;DHT22;19049;52.524;11.468;2022-12-07T16:07:53;5.10;98.70
32640;DHT22;19049;52.524;11.468;2022-12-07T16:10:19;5.10;98.80
32640;DHT22;19049;52.524;11.468;2022-12-07T16:12:48;5.10;98.80
32640;DHT22;19049;52.524;11.468;2022-12-07T16:15:19;5.10;98.80
32640;DHT22;19049;52.524;11.468;2022-12-07T16:17:45;5.10;98.90
32640;DHT22;19049;52.524;11.468;2022-12-07T16:20:10;5.10;98.80
32640;DHT22;19049;52.524;11.468;2022-12-07T16:22:36;5.10;98.70
32640;DHT22;19049;52.524;11.468;2022-12-07T16:25:03;5.10;98.60
32640;DHT22;19049;52.524;11.468;2022-12-07T16:27:28;5.10;99.00
32640;DHT22;19049;52.524;11.468;2022-12-07T16:29:54;5.10;98.90
32640;DHT22;19049;52.524;11.468;2022-12-07T16:32:20;5.10;98.90
32640;DHT22;19049;52.524;11.468;2022-12-07T16:34:45;5.10;98.50
32640;DHT22;19049;52.524;11.468;2022-12-07T16:37:11;5.10;98.60
32640;DHT22;19049;52.524;11.468;2022-12-07T16:39:36;5.10;98.60
32640;DHT22;19049;52.524;11.468;2022-12-07T16:42:02;5.10;98.70
32640;DHT22;19049;52.524;11.468;2022-12-07T16:44:28;5.10;99.00
32640;DHT22;19049;52.524;11.468;2022-12-07T16:46:56;5.10;98.40
32640;DHT22;19049;52.524;11.468;2022-12-07T16:49:22;5.10;98.60
32640;DHT22;19049;52.524;11.468;2022-12-07T16:51:50;5.10;98.40
32640;DHT22;19049;52.524;11.468;2022-12-07T16:54:15;5.00;98.40
32640;DHT22;19049;52.524;11.468;2022-12-07T16:56:41;5.00;98.30
32640;DHT22;19049;52.524;11.468;2022-12-07T16:59:08;4.90;98.40
32640;DHT22;19049;52.524;11.468;2022-12-07T17:01:33;4.90;98.10
32640;DHT22;19049;52.524;11.468;2022-12-07T17:04:00;4.80;98.10
32640;DHT22;19049;52.524;11.468;2022-12-07T17:06:28;4.80;98.00
32640;DHT22;19049;52.524;11.468;2022-12-07T17:08:56;4.70;98.20
32640;DHT22;19049;52.524;11.468;2022-12-07T17:11:24;4.60;98.10
32640;DHT22;19049;52.524;11.468;2022-12-07T17:13:50;4.50;97.90
32640;DHT22;19049;52.524;11.468;2022-12-07T17:16:36;4.50;98.00
32640;DHT22;19049;52.524;11.468;2022-12-07T17:19:10;4.40;98.10
32640;DHT22;19049;52.524;11.468;2022-12-07T17:21:37;4.30;98.00
32640;DHT22;19049;52.524;11.468;2022-12-07T17:24:05;4.20;98.40
32640;DHT22;19049;52.524;11.468;2022-12-07T17:26:32;4.20;98.20
32640;DHT22;19049;52.524;11.468;2022-12-07T17:28:58;4.10;98.10
32640;DHT22;19049;52.524;11.468;2022-12-07T17:31:25;4.00;98.20
32640;DHT22;19049;52.524;11.468;2022-12-07T17:33:51;4.00;98.20
32640;DHT22;19049;52.524;11.468;2022-12-07T17:36:23;3.90;98.10
32640;DHT22;19049;52.524;11.468;2022-12-07T17:38:49;3.90;98.20
32640;DHT22;19049;52.524;11.468;2022-12-07T17:44:02;3.70;98.40
32640;DHT22;19049;52.524;11.468;2022-12-07T17:46:29;3.70;98.50
32640;DHT22;19049;52.524;11.468;2022-12-07T17:48:55;3.60;98.60
32640;DHT22;19049;52.524;11.468;2022-12-07T17:51:21;3.60;98.70
32640;DHT22;19049;52.524;11.468;2022-12-07T17:54:05;3.60;98.70
32640;DHT22;19049;52.524;11.468;2022-12-07T17:56:31;3.60;98.80
32640;DHT22;19049;52.524;11.468;2022-12-07T17:58:56;3.60;98.80
32640;DHT22;19049;52.524;11.468;2022-12-07T18:01:22;3.50;98.80
32640;DHT22;19049;52.524;11.468;2022-12-07T18:03:48;3.50;98.80